createdAt,value
2023-02-15T00:00:12.112Z,1.38
2023-02-15T00:01:13.876Z,1.32
2023-02-15T00:02:15.506Z,1.36
2023-02-15T00:03:17.810Z,1.38
2023-02-15T00:04:22.525Z,1.41
2023-02-15T00:05:24.175Z,1.44
2023-02-15T00:06:25.879Z,1.42
2023-02-15T00:07:27.466Z,1.44
2023-02-15T00:08:29.111Z,1.51
2023-02-15T00:09:30.690Z,1.55
2023-02-15T00:10:32.390Z,1.54
2023-02-15T00:11:51.103Z,1.46
2023-02-15T00:12:52.808Z,1.51
2023-02-15T00:13:54.387Z,1.51
2023-02-15T00:14:55.981Z,1.49
2023-02-15T00:16:04.476Z,1.45
2023-02-15T00:17:06.277Z,1.44
2023-02-15T00:18:07.884Z,1.41
2023-02-15T00:19:10.051Z,1.39
2023-02-15T00:20:11.977Z,1.44
2023-02-15T00:21:13.738Z,1.45
2023-02-15T00:22:15.332Z,1.45
2023-02-15T00:23:16.911Z,1.48
2023-02-15T00:24:19.145Z,1.54
2023-02-15T00:25:20.793Z,1.54
2023-02-15T00:26:22.440Z,1.49
2023-02-15T00:27:24.289Z,1.42
2023-02-15T00:28:25.975Z,1.45
2023-02-15T00:29:27.682Z,1.48
2023-02-15T00:30:29.353Z,1.45
2023-02-15T00:31:32.691Z,1.42
2023-02-15T00:32:34.477Z,1.38
2023-02-15T00:33:36.480Z,1.38
2023-02-15T00:34:38.140Z,1.35
2023-02-15T00:35:39.778Z,1.41
2023-02-15T00:36:41.683Z,1.38
2023-02-15T00:37:43.483Z,1.36
2023-02-15T00:38:45.095Z,1.31
2023-02-15T00:39:46.756Z,1.30
2023-02-15T00:40:54.055Z,1.27
2023-02-15T00:41:55.705Z,1.25
2023-02-15T00:42:57.637Z,1.22
2023-02-15T00:43:59.230Z,1.24
2023-02-15T00:45:01.741Z,1.24
2023-02-15T00:46:04.657Z,1.15
2023-02-15T00:47:06.419Z,1.22
2023-02-15T00:48:08.037Z,1.24
2023-02-15T00:49:09.938Z,1.28
2023-02-15T00:50:11.620Z,1.24
2023-02-15T00:51:13.343Z,1.15
2023-02-15T00:52:14.939Z,1.14
2023-02-15T00:53:16.638Z,1.21
2023-02-15T00:54:18.636Z,1.14
2023-02-15T00:55:20.502Z,1.04
2023-02-15T00:56:22.126Z,1.08
2023-02-15T00:57:23.732Z,1.07
2023-02-15T00:58:25.416Z,1.14
2023-02-15T00:59:27.076Z,1.14
2023-02-15T01:00:29.879Z,1.22
2023-02-15T01:01:31.492Z,1.07
2023-02-15T01:02:33.090Z,1.15
2023-02-15T01:03:34.722Z,1.15
2023-02-15T01:04:37.421Z,1.11
2023-02-15T01:05:39.170Z,1.14
2023-02-15T01:06:40.773Z,1.14
2023-02-15T01:07:42.429Z,1.14
2023-02-15T01:08:45.042Z,1.08
2023-02-15T01:09:46.794Z,1.03
2023-02-15T01:10:48.472Z,1.07
2023-02-15T01:11:50.554Z,1.05
2023-02-15T01:12:52.842Z,1.03
2023-02-15T01:13:56.369Z,1.08
2023-02-15T01:14:57.970Z,1.09
2023-02-15T01:16:00.043Z,1.04
2023-02-15T01:17:01.969Z,1.04
2023-02-15T01:18:03.678Z,1.07
2023-02-15T01:19:05.320Z,1.04
2023-02-15T01:20:07.697Z,1.04
2023-02-15T01:21:16.558Z,1.04
2023-02-15T01:22:19.136Z,1.05
2023-02-15T01:23:20.970Z,1.03
2023-02-15T01:24:22.561Z,0.93
2023-02-15T01:25:24.351Z,0.97
2023-02-15T01:26:26.061Z,1.00
2023-02-15T01:27:27.667Z,1.00
2023-02-15T01:28:29.303Z,1.03
2023-02-15T01:29:30.974Z,0.94
2023-02-15T01:30:32.818Z,0.91
2023-02-15T01:31:34.590Z,0.94
2023-02-15T01:32:36.327Z,0.93
2023-02-15T01:33:38.010Z,0.95
2023-02-15T01:34:39.609Z,0.98
2023-02-15T01:35:41.286Z,0.98
2023-02-15T01:36:42.938Z,0.90
2023-02-15T01:37:44.569Z,0.87
2023-02-15T01:38:46.571Z,0.88
2023-02-15T01:39:48.177Z,0.90
2023-02-15T01:40:53.465Z,0.93
2023-02-15T01:41:55.123Z,0.95
2023-02-15T01:42:56.958Z,0.97
2023-02-15T01:44:02.340Z,0.94
2023-02-15T01:45:23.674Z,0.97
2023-02-15T01:46:35.798Z,0.93
2023-02-15T01:47:59.284Z,0.95
2023-02-15T01:49:03.864Z,0.97
2023-02-15T01:50:17.690Z,0.98
2023-02-15T01:51:21.432Z,1.03
2023-02-15T01:52:23.059Z,1.04
2023-02-15T01:53:44.698Z,1.08
2023-02-15T01:54:46.475Z,1.01
2023-02-15T01:55:57.062Z,1.00
2023-02-15T01:57:01.665Z,1.04
2023-02-15T01:58:03.392Z,1.04
2023-02-15T01:59:07.962Z,1.04
2023-02-15T02:00:09.944Z,1.09
2023-02-15T02:01:11.641Z,1.13
2023-02-15T02:02:14.188Z,1.05
2023-02-15T02:03:15.795Z,0.95
2023-02-15T02:04:33.838Z,1.04
2023-02-15T02:05:35.471Z,0.98
2023-02-15T02:06:37.680Z,0.97
2023-02-15T02:07:41.214Z,0.97
2023-02-15T02:08:43.257Z,0.94
2023-02-15T02:09:45.640Z,0.94
2023-02-15T02:10:47.307Z,0.88
2023-02-15T02:11:48.979Z,0.87
2023-02-15T02:12:52.034Z,0.76
2023-02-15T02:13:53.754Z,0.69
2023-02-15T02:14:55.353Z,0.74
2023-02-15T02:16:04.044Z,0.70
2023-02-15T02:17:08.262Z,0.64
2023-02-15T02:18:18.878Z,0.69
2023-02-15T02:19:48.518Z,0.73
2023-02-15T02:21:17.503Z,0.77
2023-02-15T02:22:30.725Z,0.67
2023-02-15T02:23:47.254Z,0.69
2023-02-15T02:25:19.557Z,0.69
2023-02-15T02:26:26.798Z,0.80
2023-02-15T02:27:41.160Z,0.79
2023-02-15T02:29:23.258Z,0.81
2023-02-15T02:30:54.309Z,0.71
2023-02-15T02:32:01.684Z,0.70
2023-02-15T02:33:14.731Z,0.77
2023-02-15T02:34:25.023Z,0.84
2023-02-15T02:35:28.729Z,0.85
2023-02-15T02:36:39.050Z,0.85
2023-02-15T02:38:12.063Z,0.85
2023-02-15T02:39:23.336Z,0.84
2023-02-15T02:40:45.911Z,0.73
2023-02-15T02:42:02.192Z,0.67
2023-02-15T02:43:09.971Z,0.79
2023-02-15T02:44:23.639Z,0.83
2023-02-15T02:45:26.451Z,0.76
2023-02-15T02:46:31.658Z,0.80
2023-02-15T02:47:48.652Z,0.80
2023-02-15T02:48:50.260Z,0.79
2023-02-15T02:49:53.870Z,0.84
2023-02-15T02:50:55.504Z,0.84
2023-02-15T02:52:01.548Z,0.85
2023-02-15T02:53:03.204Z,0.81
2023-02-15T02:54:06.742Z,0.87
2023-02-15T02:55:18.503Z,0.88
2023-02-15T02:56:25.711Z,0.83
2023-02-15T02:57:27.318Z,0.85
2023-02-15T02:58:40.931Z,0.83
2023-02-15T02:59:43.404Z,0.85
2023-02-15T03:00:50.034Z,0.88
2023-02-15T03:02:27.990Z,0.85
2023-02-15T03:03:39.206Z,0.83
2023-02-15T03:04:43.390Z,0.88
2023-02-15T03:05:46.071Z,0.94
2023-02-15T03:07:01.894Z,1.00
2023-02-15T03:08:07.013Z,0.95
2023-02-15T03:09:17.582Z,0.97
2023-02-15T03:10:19.428Z,0.95
2023-02-15T03:11:20.990Z,0.97
2023-02-15T03:12:28.321Z,0.98
2023-02-15T03:13:30.020Z,0.91
2023-02-15T03:14:31.637Z,0.90
2023-02-15T03:16:09.141Z,0.95
2023-02-15T03:17:10.768Z,0.94
2023-02-15T03:18:12.422Z,0.91
2023-02-15T03:19:16.629Z,0.90
2023-02-15T03:20:31.155Z,0.93
2023-02-15T03:21:50.605Z,0.91
2023-02-15T03:23:19.025Z,0.85
2023-02-15T03:24:22.679Z,0.87
2023-02-15T03:25:26.726Z,0.85
2023-02-15T03:26:28.349Z,0.81
2023-02-15T03:27:34.245Z,0.80
2023-02-15T03:28:54.646Z,0.79
2023-02-15T03:29:58.088Z,0.71
2023-02-15T03:31:01.419Z,0.66
2023-02-15T03:32:04.727Z,0.66
2023-02-15T03:33:06.351Z,0.61
2023-02-15T03:34:10.906Z,0.63
2023-02-15T03:35:12.495Z,0.57
2023-02-15T03:36:23.193Z,0.57
2023-02-15T03:37:27.762Z,0.54
2023-02-15T03:38:33.805Z,0.56
2023-02-15T03:39:39.195Z,0.57
2023-02-15T03:41:00.850Z,0.56
2023-02-15T03:42:15.254Z,0.57
2023-02-15T03:43:40.704Z,0.54
2023-02-15T03:45:06.713Z,0.45
2023-02-15T03:46:51.317Z,0.46
2023-02-15T03:47:54.220Z,0.32
2023-02-15T03:49:08.588Z,0.19
2023-02-15T03:50:32.688Z,0.10
2023-02-15T03:51:37.193Z,0.08
2023-02-15T03:52:38.882Z,0.06
2023-02-15T03:53:40.473Z,0.05
2023-02-15T03:54:44.934Z,0.09
2023-02-15T03:55:50.316Z,0.02
2023-02-15T03:57:11.931Z,-0.05
2023-02-15T03:58:32.112Z,-0.16
2023-02-15T03:59:52.065Z,-0.19
2023-02-15T04:01:18.105Z,-0.16
2023-02-15T04:02:24.058Z,-0.18
2023-02-15T04:03:28.754Z,-0.15
2023-02-15T04:04:38.184Z,-0.13
2023-02-15T04:05:40.215Z,-0.19
2023-02-15T04:06:41.809Z,-0.12
2023-02-15T04:07:43.525Z,-0.12
2023-02-15T04:09:03.344Z,-0.28
2023-02-15T04:10:24.164Z,-0.29
2023-02-15T04:11:25.854Z,-0.37
2023-02-15T04:12:27.501Z,-0.46
2023-02-15T04:13:32.914Z,-0.43
2023-02-15T04:14:52.950Z,-0.40
2023-02-15T04:16:04.666Z,-0.48
2023-02-15T04:17:07.717Z,-0.53
2023-02-15T04:18:09.388Z,-0.62
2023-02-15T04:19:29.574Z,-0.63
2023-02-15T04:20:49.866Z,-0.63
2023-02-15T04:22:09.614Z,-0.60
2023-02-15T04:23:29.508Z,-0.57
2023-02-15T04:24:49.675Z,-0.46
2023-02-15T04:25:51.292Z,-0.42
2023-02-15T04:26:55.564Z,-0.48
2023-02-15T04:27:57.218Z,-0.44
2023-02-15T04:28:58.868Z,-0.44
2023-02-15T04:30:00.499Z,-0.44
2023-02-15T04:31:02.169Z,-0.43
2023-02-15T04:32:03.929Z,-0.46
2023-02-15T04:33:05.668Z,-0.46
2023-02-15T04:34:07.319Z,-0.48
2023-02-15T04:35:09.175Z,-0.48
2023-02-15T04:36:10.795Z,-0.48
2023-02-15T04:37:12.371Z,-0.57
2023-02-15T04:38:14.041Z,-0.56
2023-02-15T04:39:16.093Z,-0.57
2023-02-15T04:40:19.483Z,-0.52
2023-02-15T04:41:21.412Z,-0.63
2023-02-15T04:42:23.052Z,-0.62
2023-02-15T04:43:24.800Z,-0.62
2023-02-15T04:44:26.443Z,-0.63
2023-02-15T04:45:28.826Z,-0.60
2023-02-15T04:46:30.446Z,-0.60
2023-02-15T04:47:32.112Z,-0.63
2023-02-15T04:48:33.713Z,-0.56
2023-02-15T04:49:35.351Z,-0.62
2023-02-15T04:50:37.037Z,-0.57
2023-02-15T04:51:38.648Z,-0.57
2023-02-15T04:52:40.303Z,-0.54
2023-02-15T04:53:41.891Z,-0.54
2023-02-15T04:54:43.500Z,-0.57
2023-02-15T04:55:45.174Z,-0.57
2023-02-15T04:56:46.820Z,-0.53
2023-02-15T04:57:48.463Z,-0.48
2023-02-15T04:58:50.077Z,-0.48
2023-02-15T04:59:51.697Z,-0.46
2023-02-15T05:00:56.325Z,-0.48
2023-02-15T05:01:58.140Z,-0.56
2023-02-15T05:02:59.811Z,-0.56
2023-02-15T05:04:01.504Z,-0.62
2023-02-15T05:05:03.157Z,-0.63
2023-02-15T05:06:04.939Z,-0.64
2023-02-15T05:07:06.621Z,-0.64
2023-02-15T05:08:08.278Z,-0.67
2023-02-15T05:09:09.881Z,-0.72
2023-02-15T05:10:11.553Z,-0.70
2023-02-15T05:11:13.143Z,-0.69
2023-02-15T05:12:14.723Z,-0.76
2023-02-15T05:13:16.382Z,-0.74
2023-02-15T05:14:17.976Z,-0.73
2023-02-15T05:15:19.583Z,-0.72
2023-02-15T05:16:21.244Z,-0.72
2023-02-15T05:17:22.956Z,-0.70
2023-02-15T05:18:24.595Z,-0.72
2023-02-15T05:19:26.448Z,-0.74
2023-02-15T05:20:28.448Z,-0.67
2023-02-15T05:21:30.031Z,-0.69
2023-02-15T05:22:31.628Z,-0.76
2023-02-15T05:23:33.320Z,-0.73
2023-02-15T05:24:53.198Z,-0.76
2023-02-15T05:26:13.020Z,-0.77
2023-02-15T05:27:33.224Z,-0.74
2023-02-15T05:28:34.955Z,-0.73
2023-02-15T05:29:36.588Z,-0.73
2023-02-15T05:30:38.661Z,-0.67
2023-02-15T05:31:40.497Z,-0.70
2023-02-15T05:32:42.476Z,-0.63
2023-02-15T05:33:44.169Z,-0.66
2023-02-15T05:34:45.801Z,-0.64
2023-02-15T05:35:47.398Z,-0.66
2023-02-15T05:36:48.994Z,-0.69
2023-02-15T05:37:50.661Z,-0.72
2023-02-15T05:38:52.294Z,-0.66
2023-02-15T05:39:53.895Z,-0.59
2023-02-15T05:40:55.566Z,-0.49
2023-02-15T05:42:02.497Z,-0.46
2023-02-15T05:43:04.094Z,-0.48
2023-02-15T05:44:06.464Z,-0.39
2023-02-15T05:45:08.125Z,-0.42
2023-02-15T05:46:10.270Z,-0.32
2023-02-15T05:47:11.905Z,-0.33
2023-02-15T05:48:13.514Z,-0.25
2023-02-15T05:49:15.126Z,-0.22
2023-02-15T05:50:16.759Z,-0.19
2023-02-15T05:51:19.605Z,-0.12
2023-02-15T05:52:21.207Z,-0.09
2023-02-15T05:53:22.797Z,-0.05
2023-02-15T05:54:25.226Z,-0.01
2023-02-15T05:55:27.103Z,-0.02
2023-02-15T05:56:28.689Z,-0.03
2023-02-15T05:57:30.298Z,-0.06
2023-02-15T05:58:33.674Z,-0.09
2023-02-15T05:59:35.299Z,-0.12
2023-02-15T06:00:38.187Z,-0.12
2023-02-15T06:01:39.840Z,-0.13
2023-02-15T06:02:41.598Z,-0.18
2023-02-15T06:03:43.402Z,-0.23
2023-02-15T06:04:45.216Z,-0.28
2023-02-15T06:05:46.825Z,-0.15
2023-02-15T06:06:48.460Z,-0.12
2023-02-15T06:07:50.121Z,-0.12
2023-02-15T06:08:51.716Z,-0.11
2023-02-15T06:09:53.448Z,-0.02
2023-02-15T06:10:55.056Z,0.06
2023-02-15T06:11:57.168Z,0.02
2023-02-15T06:12:58.754Z,0.12
2023-02-15T06:14:00.351Z,0.20
2023-02-15T06:15:01.999Z,0.22
2023-02-15T06:16:04.086Z,0.26
2023-02-15T06:17:06.564Z,0.38
2023-02-15T06:18:08.174Z,0.49
2023-02-15T06:19:09.776Z,0.46
2023-02-15T06:20:13.328Z,0.42
2023-02-15T06:21:14.976Z,0.36
2023-02-15T06:22:16.587Z,0.43
2023-02-15T06:23:18.646Z,0.38
2023-02-15T06:24:20.285Z,0.39
2023-02-15T06:25:22.011Z,0.48
2023-02-15T06:26:23.672Z,0.57
2023-02-15T06:27:25.377Z,0.57
2023-02-15T06:28:27.053Z,0.59
2023-02-15T06:29:28.653Z,0.66
2023-02-15T06:30:30.321Z,0.69
2023-02-15T06:31:33.017Z,0.76
2023-02-15T06:32:34.688Z,0.83
2023-02-15T06:33:36.376Z,0.95
2023-02-15T06:34:37.989Z,1.01
2023-02-15T06:35:39.655Z,1.15
2023-02-15T06:36:42.253Z,1.18
2023-02-15T06:37:43.838Z,1.36
2023-02-15T06:38:45.449Z,1.54
2023-02-15T06:39:47.062Z,1.60
2023-02-15T06:40:49.779Z,1.56
2023-02-15T06:41:51.400Z,1.54
2023-02-15T06:42:52.984Z,1.67
2023-02-15T06:43:54.645Z,1.66
2023-02-15T06:44:56.297Z,1.70
2023-02-15T06:45:59.283Z,1.67
2023-02-15T06:47:01.018Z,1.72
2023-02-15T06:48:02.613Z,1.87
2023-02-15T06:49:04.189Z,1.96
2023-02-15T06:50:06.833Z,2.05
2023-02-15T06:51:08.533Z,2.09
2023-02-15T06:52:10.187Z,2.13
2023-02-15T06:53:11.790Z,2.13
2023-02-15T06:54:13.392Z,2.14
2023-02-15T06:55:15.042Z,2.13
2023-02-15T06:56:17.939Z,2.16
2023-02-15T06:57:19.539Z,2.07
2023-02-15T06:58:21.171Z,2.17
2023-02-15T06:59:22.763Z,2.13
2023-02-15T07:00:24.471Z,2.24
2023-02-15T07:01:27.344Z,2.30
2023-02-15T07:02:29.397Z,2.26
2023-02-15T07:03:31.089Z,2.13
2023-02-15T07:04:32.769Z,2.30
2023-02-15T07:05:34.691Z,2.42
2023-02-15T07:06:36.961Z,2.48
2023-02-15T07:07:38.622Z,2.54
2023-02-15T07:08:40.352Z,2.62
2023-02-15T07:09:42.004Z,2.66
2023-02-15T07:10:46.525Z,2.71
2023-02-15T07:12:06.868Z,2.54
2023-02-15T07:13:08.541Z,2.74
2023-02-15T07:14:10.143Z,2.84
2023-02-15T07:15:13.418Z,2.95
2023-02-15T07:16:15.155Z,2.96
2023-02-15T07:17:34.959Z,3.08
2023-02-15T07:18:37.872Z,3.16
2023-02-15T07:19:39.682Z,3.15
2023-02-15T07:20:42.683Z,3.13
2023-02-15T07:21:46.499Z,3.12
2023-02-15T07:22:48.258Z,3.30
2023-02-15T07:23:50.144Z,3.44
2023-02-15T07:24:55.544Z,3.53
2023-02-15T07:26:00.793Z,3.64
2023-02-15T07:27:02.610Z,3.74
2023-02-15T07:28:04.631Z,3.67
2023-02-15T07:29:06.232Z,3.67
2023-02-15T07:30:09.471Z,3.80
2023-02-15T07:31:11.206Z,3.75
2023-02-15T07:32:12.900Z,3.75
2023-02-15T07:33:28.137Z,3.83
2023-02-15T07:34:29.794Z,3.99
2023-02-15T07:35:31.409Z,4.11
2023-02-15T07:36:33.345Z,4.21
2023-02-15T07:37:34.984Z,4.34
2023-02-15T07:38:37.352Z,4.35
2023-02-15T07:39:38.987Z,4.39
2023-02-15T07:40:40.627Z,4.46
2023-02-15T07:41:42.273Z,4.45
2023-02-15T07:42:43.897Z,4.45
2023-02-15T07:43:46.170Z,4.42
2023-02-15T07:44:47.907Z,4.36
2023-02-15T07:45:49.494Z,4.22
2023-02-15T07:46:51.272Z,4.14
2023-02-15T07:47:52.935Z,4.08
2023-02-15T07:48:54.638Z,4.06
2023-02-15T07:49:56.212Z,3.98
2023-02-15T07:51:05.543Z,3.93
2023-02-15T07:52:07.183Z,3.93
2023-02-15T07:53:08.826Z,3.93
2023-02-15T07:54:10.464Z,3.93
2023-02-15T07:55:13.856Z,3.91
2023-02-15T07:56:15.769Z,3.88
2023-02-15T07:57:17.374Z,3.99
2023-02-15T07:58:19.444Z,3.97
2023-02-15T07:59:21.058Z,4.09
2023-02-15T08:00:30.779Z,4.15
2023-02-15T08:01:36.388Z,4.19
2023-02-15T08:02:38.343Z,4.15
2023-02-15T08:03:39.989Z,4.28
2023-02-15T08:04:41.749Z,4.16
2023-02-15T08:05:44.994Z,4.01
2023-02-15T08:06:46.633Z,4.06
2023-02-15T08:07:48.274Z,4.16
2023-02-15T08:08:49.937Z,4.01
2023-02-15T08:09:51.596Z,4.06
2023-02-15T08:11:11.694Z,3.99
2023-02-15T08:12:13.289Z,4.04
2023-02-15T08:13:14.975Z,4.11
2023-02-15T08:14:19.795Z,4.22
2023-02-15T08:15:21.387Z,4.21
2023-02-15T08:16:32.868Z,4.26
2023-02-15T08:17:37.681Z,4.42
2023-02-15T08:18:39.367Z,4.46
2023-02-15T08:19:41.452Z,4.55
2023-02-15T08:20:43.331Z,4.56
2023-02-15T08:22:05.086Z,4.60
2023-02-15T08:23:06.772Z,4.44
2023-02-15T08:24:09.228Z,4.52
2023-02-15T08:25:10.824Z,4.59
2023-02-15T08:26:12.502Z,4.66
2023-02-15T08:27:14.250Z,4.70
2023-02-15T08:28:15.957Z,4.67
2023-02-15T08:29:19.159Z,4.62
2023-02-15T08:30:20.908Z,4.73
2023-02-15T08:31:22.839Z,4.72
2023-02-15T08:32:24.627Z,4.75
2023-02-15T08:33:26.690Z,4.72
2023-02-15T08:34:28.376Z,4.75
2023-02-15T08:35:30.040Z,4.79
2023-02-15T08:36:32.808Z,4.84
2023-02-15T08:37:34.448Z,4.87
2023-02-15T08:38:36.153Z,4.87
2023-02-15T08:39:37.900Z,4.91
2023-02-15T08:40:39.689Z,4.91
2023-02-15T08:41:43.502Z,4.93
2023-02-15T08:42:45.117Z,4.94
2023-02-15T08:43:52.242Z,4.93
2023-02-15T08:44:54.003Z,4.93
2023-02-15T08:45:55.690Z,4.94
2023-02-15T08:47:03.542Z,4.97
2023-02-15T08:48:05.334Z,4.97
2023-02-15T08:49:07.000Z,4.94
2023-02-15T08:50:08.860Z,4.94
2023-02-15T08:51:21.126Z,4.93
2023-02-15T08:52:22.849Z,4.93
2023-02-15T08:53:24.498Z,4.94
2023-02-15T08:54:26.262Z,4.96
2023-02-15T08:55:27.842Z,4.96
2023-02-15T08:56:32.818Z,5.00
2023-02-15T08:57:34.503Z,5.03
2023-02-15T08:58:36.372Z,5.07
2023-02-15T08:59:37.966Z,5.11
2023-02-15T09:00:39.554Z,5.16
2023-02-15T09:01:41.260Z,5.17
2023-02-15T09:02:43.374Z,5.18
2023-02-15T09:03:45.863Z,5.21
2023-02-15T09:04:47.493Z,5.18
2023-02-15T09:05:49.105Z,5.21
2023-02-15T09:06:50.941Z,5.23
2023-02-15T09:07:52.613Z,5.26
2023-02-15T09:08:54.381Z,5.31
2023-02-15T09:09:55.987Z,5.40
2023-02-15T09:11:07.766Z,5.35
2023-02-15T09:12:09.453Z,5.38
2023-02-15T09:13:11.040Z,5.37
2023-02-15T09:14:17.512Z,5.41
2023-02-15T09:15:19.199Z,5.41
2023-02-15T09:16:21.223Z,5.44
2023-02-15T09:17:22.907Z,5.47
2023-02-15T09:18:24.515Z,5.52
2023-02-15T09:19:26.404Z,5.50
2023-02-15T09:20:29.158Z,5.51
2023-02-15T09:21:30.894Z,5.56
2023-02-15T09:22:32.545Z,5.55
2023-02-15T09:23:34.360Z,5.56
2023-02-15T09:24:36.082Z,5.61
2023-02-15T09:25:37.701Z,5.65
2023-02-15T09:26:44.216Z,5.65
2023-02-15T09:27:45.814Z,5.62
2023-02-15T09:28:47.981Z,5.61
2023-02-15T09:29:49.818Z,5.62
2023-02-15T09:30:51.479Z,5.62
2023-02-15T09:31:54.736Z,5.59
2023-02-15T09:32:56.425Z,5.62
2023-02-15T09:33:59.460Z,5.59
2023-02-15T09:35:01.086Z,5.61
2023-02-15T09:36:03.915Z,5.62
2023-02-15T09:37:06.437Z,5.66
2023-02-15T09:38:08.033Z,5.66
2023-02-15T09:39:24.798Z,5.75
2023-02-15T09:40:26.647Z,5.76
2023-02-15T09:41:34.068Z,5.79
2023-02-15T09:42:48.372Z,5.81
2023-02-15T09:43:54.355Z,5.82
2023-02-15T09:45:18.726Z,5.83
2023-02-15T09:46:35.555Z,5.86
2023-02-15T09:47:46.098Z,5.86
2023-02-15T09:48:52.062Z,5.89
2023-02-15T09:50:19.876Z,5.89
2023-02-15T09:51:55.841Z,5.92
2023-02-15T09:53:00.252Z,5.96
2023-02-15T09:54:09.362Z,5.96
2023-02-15T09:55:15.160Z,5.98
2023-02-15T09:56:43.610Z,6.02
2023-02-15T09:57:48.044Z,6.07
2023-02-15T09:58:52.683Z,6.12
2023-02-15T10:00:25.504Z,6.14
2023-02-15T10:01:40.383Z,6.14
2023-02-15T10:03:15.719Z,6.17
2023-02-15T10:04:38.307Z,6.26
2023-02-15T10:05:58.761Z,6.29
2023-02-15T10:07:29.464Z,6.37
2023-02-15T10:08:36.799Z,6.43
2023-02-15T10:10:15.707Z,6.38
2023-02-15T10:11:42.481Z,6.41
2023-02-15T10:12:56.368Z,6.43
2023-02-15T10:14:48.809Z,6.46
2023-02-15T10:15:54.580Z,6.38
2023-02-15T10:17:24.208Z,6.40
2023-02-15T10:19:10.355Z,6.46
2023-02-15T10:20:49.337Z,6.53
2023-02-15T10:22:13.906Z,6.54
2023-02-15T10:23:30.716Z,6.53
2023-02-15T10:25:05.841Z,6.65
2023-02-15T10:26:39.217Z,6.73
2023-02-15T10:27:50.178Z,6.75
2023-02-15T10:28:53.550Z,6.78
2023-02-15T10:30:10.986Z,6.83
2023-02-15T10:31:14.047Z,6.84
2023-02-15T10:32:25.904Z,6.83
2023-02-15T10:33:41.398Z,6.89
2023-02-15T10:34:57.740Z,7.04
2023-02-15T10:36:11.272Z,7.11
2023-02-15T10:37:41.265Z,7.14
2023-02-15T10:38:51.832Z,7.09
2023-02-15T10:40:11.991Z,7.05
2023-02-15T10:41:29.212Z,7.05
2023-02-15T10:42:52.031Z,7.02
2023-02-15T10:43:53.609Z,7.01
2023-02-15T10:45:13.155Z,7.11
2023-02-15T10:46:25.352Z,7.14
2023-02-15T10:47:41.982Z,7.22
2023-02-15T10:48:46.566Z,7.25
2023-02-15T10:50:00.225Z,7.26
2023-02-15T10:51:03.450Z,7.29
2023-02-15T10:52:07.992Z,7.38
2023-02-15T10:53:27.949Z,7.38
2023-02-15T10:55:10.022Z,7.40
2023-02-15T10:56:11.607Z,7.40
2023-02-15T10:58:03.608Z,7.40
2023-02-15T10:59:31.939Z,7.48
2023-02-15T11:01:01.072Z,7.48
2023-02-15T11:02:30.019Z,7.50
2023-02-15T11:03:53.627Z,7.50
2023-02-15T11:05:03.683Z,7.52
2023-02-15T11:06:06.164Z,7.58
2023-02-15T11:07:14.696Z,7.62
2023-02-15T11:08:16.299Z,7.63
2023-02-15T11:09:19.271Z,7.65
2023-02-15T11:10:20.879Z,7.65
2023-02-15T11:11:37.181Z,7.59
2023-02-15T11:12:38.867Z,7.58
2023-02-15T11:13:42.372Z,7.49
2023-02-15T11:15:25.105Z,7.46
2023-02-15T11:16:35.347Z,7.49
2023-02-15T11:17:39.396Z,7.48
2023-02-15T11:18:52.629Z,7.46
2023-02-15T11:20:03.818Z,7.50
2023-02-15T11:21:40.206Z,7.52
2023-02-15T11:22:41.847Z,7.50
2023-02-15T11:23:48.108Z,7.53
2023-02-15T11:24:51.023Z,7.56
2023-02-15T11:26:03.638Z,7.62
2023-02-15T11:27:15.971Z,7.63
2023-02-15T11:28:24.440Z,7.67
2023-02-15T11:29:38.081Z,7.63
2023-02-15T11:30:45.857Z,7.69
2023-02-15T11:31:52.577Z,7.77
2023-02-15T11:32:56.298Z,7.79
2023-02-15T11:34:03.207Z,7.83
2023-02-15T11:35:10.548Z,7.86
2023-02-15T11:36:18.830Z,7.90
2023-02-15T11:37:21.981Z,7.93
2023-02-15T11:38:26.896Z,7.90
2023-02-15T11:39:29.680Z,7.81
2023-02-15T11:40:50.434Z,7.80
2023-02-15T11:41:55.140Z,7.79
2023-02-15T11:42:58.637Z,7.76
2023-02-15T11:44:21.880Z,7.84
2023-02-15T11:45:31.062Z,7.90
2023-02-15T11:46:32.715Z,7.94
2023-02-15T11:47:34.459Z,8.00
2023-02-15T11:48:36.127Z,7.97
2023-02-15T11:49:38.443Z,7.98
2023-02-15T11:50:40.497Z,7.94
2023-02-15T11:51:43.040Z,7.91
2023-02-15T11:52:44.875Z,7.90
2023-02-15T11:53:46.840Z,7.86
2023-02-15T11:54:52.954Z,7.79
2023-02-15T11:55:54.702Z,7.87
2023-02-15T11:57:39.069Z,7.93
2023-02-15T11:59:00.882Z,7.98
2023-02-15T12:00:05.199Z,7.98
2023-02-15T12:01:11.339Z,8.02
2023-02-15T12:02:20.672Z,8.11
2023-02-15T12:03:28.056Z,8.10
2023-02-15T12:04:35.847Z,8.07
2023-02-15T12:05:37.561Z,8.11
2023-02-15T12:06:45.414Z,8.20
2023-02-15T12:08:05.083Z,8.18
2023-02-15T12:09:29.609Z,8.15
2023-02-15T12:10:33.317Z,8.08
2023-02-15T12:11:39.575Z,8.02
2023-02-15T12:12:41.322Z,7.98
2023-02-15T12:13:56.751Z,7.91
2023-02-15T12:15:06.041Z,7.81
2023-02-15T12:16:11.113Z,7.81
2023-02-15T12:17:13.978Z,7.83
2023-02-15T12:18:20.413Z,7.87
2023-02-15T12:19:43.156Z,7.84
2023-02-15T12:20:44.946Z,7.89
2023-02-15T12:21:48.036Z,7.89
2023-02-15T12:22:54.844Z,7.91
2023-02-15T12:24:03.804Z,7.95
2023-02-15T12:25:26.384Z,7.95
2023-02-15T12:26:35.859Z,8.05
2023-02-15T12:27:38.039Z,8.04
2023-02-15T12:28:42.752Z,8.11
2023-02-15T12:29:49.472Z,8.15
2023-02-15T12:30:51.315Z,8.18
2023-02-15T12:31:53.010Z,8.21
2023-02-15T12:33:00.759Z,8.25
2023-02-15T12:34:03.873Z,8.28
2023-02-15T12:35:17.128Z,8.30
2023-02-15T12:36:20.340Z,8.32
2023-02-15T12:37:26.715Z,8.30
2023-02-15T12:38:28.950Z,8.32
2023-02-15T12:39:31.666Z,8.30
2023-02-15T12:40:34.486Z,8.24
2023-02-15T12:41:37.595Z,8.22
2023-02-15T12:42:45.622Z,8.21
2023-02-15T12:43:47.285Z,8.22
2023-02-15T12:45:05.804Z,8.25
2023-02-15T12:46:26.572Z,8.31
2023-02-15T12:47:29.495Z,8.34
2023-02-15T12:48:31.179Z,8.32
2023-02-15T12:49:34.337Z,8.37
2023-02-15T12:50:36.324Z,8.42
2023-02-15T12:51:52.067Z,8.48
2023-02-15T12:53:13.666Z,8.44
2023-02-15T12:54:35.521Z,8.34
2023-02-15T12:55:37.641Z,8.37
2023-02-15T12:56:39.477Z,8.31
2023-02-15T12:57:41.105Z,8.32
2023-02-15T12:58:42.860Z,8.30
2023-02-15T13:00:07.526Z,8.31
2023-02-15T13:01:22.294Z,8.32
2023-02-15T13:02:28.608Z,8.30
2023-02-15T13:03:30.232Z,8.28
2023-02-15T13:04:32.068Z,8.30
2023-02-15T13:05:37.461Z,8.28
2023-02-15T13:06:39.105Z,8.30
2023-02-15T13:07:40.802Z,8.27
2023-02-15T13:08:50.548Z,8.25
2023-02-15T13:09:52.312Z,8.21
2023-02-15T13:11:13.173Z,8.14
2023-02-15T13:12:28.756Z,8.14
2023-02-15T13:13:32.199Z,8.15
2023-02-15T13:14:33.839Z,8.21
2023-02-15T13:15:42.220Z,8.27
2023-02-15T13:16:44.440Z,8.30
2023-02-15T13:17:46.122Z,8.34
2023-02-15T13:18:48.141Z,8.28
2023-02-15T13:19:51.798Z,8.22
2023-02-15T13:20:53.484Z,8.31
2023-02-15T13:21:55.210Z,8.37
2023-02-15T13:23:06.213Z,8.38
2023-02-15T13:24:25.368Z,8.38
2023-02-15T13:25:29.590Z,8.35
2023-02-15T13:26:32.181Z,8.38
2023-02-15T13:27:39.012Z,8.30
2023-02-15T13:28:45.778Z,8.28
2023-02-15T13:29:54.896Z,8.25
2023-02-15T13:30:56.802Z,8.24
2023-02-15T13:31:59.230Z,8.22
2023-02-15T13:33:28.256Z,8.24
2023-02-15T13:34:31.974Z,8.25
2023-02-15T13:35:43.797Z,8.32
2023-02-15T13:37:02.553Z,8.28
2023-02-15T13:38:19.662Z,8.28
2023-02-15T13:39:43.321Z,8.24
2023-02-15T13:40:51.175Z,8.22
2023-02-15T13:41:54.640Z,8.24
2023-02-15T13:42:58.460Z,8.25
2023-02-15T13:44:12.110Z,8.20
2023-02-15T13:45:25.818Z,8.18
2023-02-15T13:47:04.612Z,8.17
2023-02-15T13:48:40.145Z,8.25
2023-02-15T13:49:47.526Z,8.32
2023-02-15T13:50:57.990Z,8.34
2023-02-15T13:51:59.649Z,8.38
2023-02-15T13:53:07.486Z,8.40
2023-02-15T13:54:45.988Z,8.45
2023-02-15T13:55:55.671Z,8.48
2023-02-15T13:57:04.348Z,8.48
2023-02-15T13:58:15.542Z,8.48
2023-02-15T13:59:20.397Z,8.51
2023-02-15T14:00:26.056Z,8.52
2023-02-15T14:02:05.052Z,8.46
2023-02-15T14:03:21.913Z,8.49
2023-02-15T14:04:48.388Z,8.56
2023-02-15T14:05:57.295Z,8.61
2023-02-15T14:07:04.646Z,8.56
2023-02-15T14:08:31.165Z,8.61
2023-02-15T14:09:38.388Z,8.62
2023-02-15T14:11:01.316Z,8.62
2023-02-15T14:12:18.136Z,8.58
2023-02-15T14:13:38.587Z,8.61
2023-02-15T14:14:50.244Z,8.63
2023-02-15T14:16:07.189Z,8.66
2023-02-15T14:17:12.785Z,8.63
2023-02-15T14:18:23.565Z,8.58
2023-02-15T14:19:50.815Z,8.55
2023-02-15T14:21:16.657Z,8.49
2023-02-15T14:22:30.617Z,8.40
2023-02-15T14:23:39.690Z,8.35
2023-02-15T14:25:02.113Z,8.34
2023-02-15T14:26:20.536Z,8.37
2023-02-15T14:27:30.091Z,8.38
2023-02-15T14:29:04.381Z,8.35
2023-02-15T14:30:21.448Z,8.38
2023-02-15T14:31:30.054Z,8.34
2023-02-15T14:32:34.672Z,8.35
2023-02-15T14:33:41.072Z,8.32
2023-02-15T14:34:51.746Z,8.30
2023-02-15T14:35:53.446Z,8.30
2023-02-15T14:36:55.516Z,8.22
2023-02-15T14:38:13.494Z,8.21
2023-02-15T14:39:56.313Z,8.21
2023-02-15T14:41:02.836Z,8.20
2023-02-15T14:42:51.018Z,8.27
2023-02-15T14:44:12.845Z,8.20
2023-02-15T14:45:22.742Z,8.20
2023-02-15T14:46:35.413Z,8.17
2023-02-15T14:47:39.822Z,8.12
2023-02-15T14:48:52.180Z,8.08